Donnellson, Iowa
Current Conditions -  °F | °C
As of 6:15 AM on Sunday 25 Jan 2015 (Local Time) from KFSW Reporting Station
Light Rain Light Rain  
Wind Chill: 41°   Ceiling: 600
Heat Index: 41°   Visibility: 2.5mi
Dew Point: 39°   Wind: 0mph
Humidity: 93%   Direction: NA
Pressure: 29.59"   Gusts: NA
Location:  40.64°N, 91.56°W
Report Text: KFSW 251215Z AUTO 00000KT 2 1/2SM -RA OVC006 05/04 A2959 RMK AO2 P0002
Loading
Personal Weather Stations






























Interactive Weather Map New forecast layout! Learn more

10-Day Weather Forecast

Advertisements
Track Severe Weather on mobile